createdAt,value
2022-07-26T00:01:05.435Z,22.90
2022-07-26T00:03:33.956Z,22.90
2022-07-26T00:06:02.122Z,22.90
2022-07-26T00:08:30.131Z,23.00
2022-07-26T00:10:58.161Z,23.00
2022-07-26T00:13:27.948Z,22.90
2022-07-26T00:15:59.906Z,22.90
2022-07-26T00:18:28.362Z,22.90
2022-07-26T00:20:56.452Z,22.90
2022-07-26T00:23:25.917Z,22.90
2022-07-26T00:25:53.989Z,22.90
2022-07-26T00:28:22.145Z,22.90
2022-07-26T00:30:50.234Z,22.90
2022-07-26T00:33:19.659Z,22.90
2022-07-26T00:35:47.830Z,22.80
2022-07-26T00:38:16.224Z,22.90
2022-07-26T00:40:44.315Z,22.80
2022-07-26T00:43:12.534Z,22.80
2022-07-26T00:45:40.654Z,22.80
2022-07-26T00:48:08.937Z,22.80
2022-07-26T00:50:38.519Z,22.80
2022-07-26T00:53:06.571Z,22.60
2022-07-26T00:55:34.777Z,22.60
2022-07-26T00:58:02.865Z,22.60
2022-07-26T01:00:31.250Z,22.50
2022-07-26T01:03:00.633Z,22.50
2022-07-26T01:05:29.169Z,22.60
2022-07-26T01:07:59.393Z,22.60
2022-07-26T01:10:27.535Z,22.60
2022-07-26T01:12:55.529Z,22.50
2022-07-26T01:15:23.668Z,22.50
2022-07-26T01:17:51.767Z,22.40
2022-07-26T01:20:19.815Z,22.40
2022-07-26T01:22:49.277Z,22.40
2022-07-26T01:25:17.749Z,22.40
2022-07-26T01:27:45.798Z,22.40
2022-07-26T01:30:14.952Z,22.40
2022-07-26T01:32:43.020Z,22.30
2022-07-26T01:35:11.698Z,22.30
2022-07-26T01:37:39.754Z,22.30
2022-07-26T01:40:11.448Z,22.40
2022-07-26T01:42:41.017Z,22.40
2022-07-26T01:45:10.036Z,22.40
2022-07-26T01:47:38.424Z,22.40
2022-07-26T01:50:08.127Z,22.40
2022-07-26T01:52:37.343Z,22.40
2022-07-26T01:55:06.022Z,22.40
2022-07-26T01:57:35.484Z,22.40
2022-07-26T02:00:05.216Z,22.30
2022-07-26T02:02:33.391Z,22.30
2022-07-26T02:05:02.028Z,22.30
2022-07-26T02:07:31.892Z,22.30
2022-07-26T02:10:01.518Z,22.40
2022-07-26T02:12:29.975Z,22.30
2022-07-26T02:14:59.398Z,22.30
2022-07-26T02:17:27.493Z,22.30
2022-07-26T02:19:55.612Z,22.40
2022-07-26T02:22:23.621Z,22.40
2022-07-26T02:24:51.743Z,22.40
2022-07-26T02:27:20.146Z,22.40
2022-07-26T02:29:48.412Z,22.40
2022-07-26T02:32:18.232Z,22.40
2022-07-26T02:34:46.275Z,22.40
2022-07-26T02:37:14.303Z,22.30
2022-07-26T02:39:42.307Z,22.40
2022-07-26T02:42:10.366Z,22.40
2022-07-26T02:44:38.427Z,22.50
2022-07-26T02:47:06.530Z,22.50
2022-07-26T02:49:36.344Z,22.50
2022-07-26T02:52:04.675Z,22.50
2022-07-26T02:54:32.724Z,22.50
2022-07-26T02:57:00.771Z,22.60
2022-07-26T02:59:28.816Z,22.50
2022-07-26T03:01:57.017Z,22.50
2022-07-26T03:04:25.113Z,22.50
2022-07-26T03:06:54.519Z,22.40
2022-07-26T03:09:22.584Z,22.30
2022-07-26T03:11:50.657Z,22.20
2022-07-26T03:14:18.727Z,22.20
2022-07-26T03:16:46.822Z,22.40
2022-07-26T03:19:14.851Z,22.30
2022-07-26T03:21:43.969Z,22.20
2022-07-26T03:24:13.397Z,22.20
2022-07-26T03:26:41.536Z,22.20
2022-07-26T03:29:09.756Z,22.30
2022-07-26T03:31:37.871Z,22.10
2022-07-26T03:34:06.694Z,22.10
2022-07-26T03:36:34.902Z,22.00
2022-07-26T03:39:02.963Z,22.20
2022-07-26T03:41:32.491Z,22.20
2022-07-26T03:44:00.498Z,22.00
2022-07-26T03:46:28.958Z,22.00
2022-07-26T03:48:57.073Z,22.00
2022-07-26T03:51:25.216Z,21.90
2022-07-26T03:53:53.319Z,21.90
2022-07-26T03:56:31.844Z,21.80
2022-07-26T03:59:02.585Z,21.90
2022-07-26T04:01:31.189Z,21.80
2022-07-26T04:03:59.338Z,21.80
2022-07-26T04:06:27.439Z,21.80
2022-07-26T04:08:55.535Z,21.80
2022-07-26T04:11:26.436Z,21.80
2022-07-26T04:13:56.408Z,21.80
2022-07-26T04:16:26.040Z,21.80
2022-07-26T04:18:54.219Z,21.80
2022-07-26T04:21:22.502Z,21.70
2022-07-26T04:23:51.753Z,21.70
2022-07-26T04:26:21.164Z,21.60
2022-07-26T04:28:49.463Z,21.60
2022-07-26T04:31:17.934Z,21.60
2022-07-26T04:33:47.450Z,21.60
2022-07-26T04:36:15.611Z,21.60
2022-07-26T04:38:43.673Z,21.60
2022-07-26T04:41:11.848Z,21.60
2022-07-26T04:43:39.881Z,21.60
2022-07-26T04:46:08.224Z,21.50
2022-07-26T04:48:37.848Z,21.50
2022-07-26T04:51:07.571Z,21.40
2022-07-26T04:53:35.631Z,21.50
2022-07-26T04:56:03.673Z,21.50
2022-07-26T04:58:31.701Z,21.50
2022-07-26T05:01:16.245Z,21.50
2022-07-26T05:03:44.357Z,21.50
2022-07-26T05:06:13.789Z,21.60
2022-07-26T05:08:43.326Z,21.60
2022-07-26T05:11:11.531Z,21.70
2022-07-26T05:13:39.612Z,21.70
2022-07-26T05:16:11.672Z,21.80
2022-07-26T05:18:46.112Z,21.80
2022-07-26T05:21:18.906Z,21.80
2022-07-26T05:23:46.985Z,21.80
2022-07-26T05:26:15.202Z,21.80
2022-07-26T05:28:43.225Z,21.80
2022-07-26T05:31:11.301Z,21.80
2022-07-26T05:33:39.377Z,21.80
2022-07-26T05:36:07.943Z,21.90
2022-07-26T05:38:37.360Z,21.90
2022-07-26T05:41:05.615Z,22.10
2022-07-26T05:43:40.766Z,22.00
2022-07-26T05:46:09.844Z,22.40
2022-07-26T05:48:38.200Z,22.90
2022-07-26T05:51:06.309Z,23.20
2022-07-26T05:53:34.400Z,23.50
2022-07-26T05:56:04.071Z,23.50
2022-07-26T05:58:32.223Z,23.40
2022-07-26T06:01:00.280Z,23.20
2022-07-26T06:03:30.136Z,23.10
2022-07-26T06:05:59.821Z,23.10
2022-07-26T06:08:28.394Z,23.10
2022-07-26T06:10:56.952Z,23.20
2022-07-26T06:13:26.464Z,23.30
2022-07-26T06:15:54.608Z,23.20
2022-07-26T06:18:22.988Z,23.20
2022-07-26T06:20:51.422Z,23.20
2022-07-26T06:23:33.866Z,23.20
2022-07-26T06:26:04.089Z,23.10
2022-07-26T06:28:33.961Z,23.00
2022-07-26T06:31:02.040Z,22.90
2022-07-26T06:33:30.123Z,23.00
2022-07-26T06:35:58.207Z,23.00
2022-07-26T06:38:26.375Z,22.80
2022-07-26T06:40:54.507Z,22.50
2022-07-26T06:43:22.627Z,22.30
2022-07-26T06:45:52.040Z,22.30
2022-07-26T06:48:20.240Z,22.30
2022-07-26T06:50:48.382Z,22.40
2022-07-26T06:53:16.532Z,22.50
2022-07-26T06:55:44.794Z,22.70
2022-07-26T06:58:14.160Z,22.80
2022-07-26T07:00:42.316Z,22.90
2022-07-26T07:03:11.922Z,22.70
2022-07-26T07:05:39.978Z,22.80
2022-07-26T07:08:08.109Z,22.90
2022-07-26T07:10:38.564Z,22.90
2022-07-26T07:13:06.657Z,23.20
2022-07-26T07:15:34.722Z,23.40
2022-07-26T07:18:02.815Z,23.70
2022-07-26T07:20:32.195Z,24.00
2022-07-26T07:23:00.182Z,24.30
2022-07-26T07:25:30.886Z,24.50
2022-07-26T07:27:59.392Z,24.50
2022-07-26T07:30:28.164Z,24.50
2022-07-26T07:32:56.901Z,24.70
2022-07-26T07:35:25.195Z,24.80
2022-07-26T07:38:02.026Z,24.80
2022-07-26T07:40:30.339Z,24.80
2022-07-26T07:42:58.919Z,24.90
2022-07-26T07:45:27.031Z,25.10
2022-07-26T07:47:55.207Z,25.10
2022-07-26T07:50:27.198Z,25.30
2022-07-26T07:52:59.046Z,25.70
2022-07-26T07:55:46.637Z,25.70
2022-07-26T07:58:17.287Z,26.10
2022-07-26T08:00:47.272Z,26.30
2022-07-26T08:03:17.903Z,26.60
2022-07-26T08:05:47.343Z,26.20
2022-07-26T08:08:18.766Z,25.90
2022-07-26T08:10:51.696Z,25.70
2022-07-26T08:13:21.444Z,25.80
2022-07-26T08:15:50.630Z,25.90
2022-07-26T08:18:21.653Z,25.80
2022-07-26T08:20:51.514Z,25.80
2022-07-26T08:23:19.901Z,25.80
2022-07-26T08:25:57.092Z,25.80
2022-07-26T08:31:15.467Z,26.10
2022-07-26T08:33:46.535Z,26.40
2022-07-26T08:36:15.654Z,26.20
2022-07-26T08:38:43.905Z,25.90
2022-07-26T08:41:13.275Z,25.70
2022-07-26T08:43:52.117Z,25.60
2022-07-26T08:46:25.182Z,25.90
2022-07-26T08:48:53.997Z,26.20
2022-07-26T08:51:25.555Z,26.20
2022-07-26T08:54:04.198Z,26.10
2022-07-26T08:56:35.903Z,25.90
2022-07-26T08:59:06.706Z,25.90
2022-07-26T09:01:35.249Z,26.00
2022-07-26T09:04:32.269Z,26.00
2022-07-26T09:07:06.443Z,25.90
2022-07-26T09:09:36.571Z,26.10
2022-07-26T09:12:24.774Z,26.30
2022-07-26T09:14:53.645Z,26.40
2022-07-26T09:17:24.786Z,26.30
2022-07-26T09:20:07.744Z,26.30
2022-07-26T09:22:37.394Z,25.90
2022-07-26T09:25:21.552Z,25.80
2022-07-26T09:27:53.123Z,26.10
2022-07-26T09:30:21.578Z,26.40
2022-07-26T09:32:59.829Z,26.50
2022-07-26T09:38:17.520Z,26.60
2022-07-26T09:40:50.892Z,26.30
2022-07-26T09:43:24.417Z,26.30
2022-07-26T09:46:06.993Z,26.10
2022-07-26T09:49:09.417Z,26.10
2022-07-26T09:51:39.036Z,26.50
2022-07-26T09:54:07.292Z,27.00
2022-07-26T09:56:46.746Z,27.00
2022-07-26T09:59:17.631Z,27.10
2022-07-26T10:01:46.912Z,26.80
2022-07-26T10:04:15.990Z,26.90
2022-07-26T10:06:44.529Z,27.10
2022-07-26T10:09:14.206Z,27.10
2022-07-26T10:11:47.289Z,27.20
2022-07-26T10:14:40.148Z,27.20
2022-07-26T10:17:51.078Z,27.30
2022-07-26T10:20:45.676Z,27.60
2022-07-26T10:23:41.897Z,27.80
2022-07-26T10:26:12.983Z,27.60
2022-07-26T10:28:42.398Z,27.20
2022-07-26T10:31:30.661Z,27.10
2022-07-26T10:34:01.765Z,27.20
2022-07-26T10:36:33.706Z,27.10
2022-07-26T10:39:05.491Z,27.40
2022-07-26T10:41:35.699Z,27.80
2022-07-26T10:44:22.031Z,28.10
2022-07-26T10:46:59.595Z,27.70
2022-07-26T10:49:33.574Z,27.30
2022-07-26T10:52:13.615Z,27.10
2022-07-26T10:55:07.145Z,27.00
2022-07-26T10:57:37.846Z,26.90
2022-07-26T11:00:11.191Z,26.70
2022-07-26T11:02:43.309Z,27.00
2022-07-26T11:05:16.430Z,27.10
2022-07-26T11:08:00.095Z,27.30
2022-07-26T11:10:31.310Z,27.10
2022-07-26T11:13:04.271Z,26.90
2022-07-26T11:15:32.388Z,26.90
2022-07-26T11:18:27.962Z,26.80
2022-07-26T11:20:57.919Z,26.90
2022-07-26T11:23:31.908Z,27.10
2022-07-26T11:26:05.221Z,27.30
2022-07-26T11:28:52.877Z,27.20
2022-07-26T11:31:23.636Z,27.40
2022-07-26T11:34:20.007Z,27.70
2022-07-26T11:36:48.707Z,28.00
2022-07-26T11:39:23.715Z,27.90
2022-07-26T11:41:59.216Z,27.70
2022-07-26T11:44:27.900Z,27.80
2022-07-26T11:46:58.028Z,28.00
2022-07-26T11:50:00.593Z,28.10
2022-07-26T11:52:25.210Z,27.90
2022-07-26T11:54:55.461Z,28.00
2022-07-26T11:57:28.459Z,28.10
2022-07-26T11:59:56.563Z,28.20
2022-07-26T12:02:24.802Z,28.20
2022-07-26T12:05:14.807Z,28.00
2022-07-26T12:07:54.987Z,28.20
2022-07-26T12:10:23.178Z,28.40
2022-07-26T12:12:51.427Z,28.40
2022-07-26T12:15:19.396Z,28.20
2022-07-26T12:18:00.740Z,27.70
2022-07-26T12:20:30.205Z,27.60
2022-07-26T12:23:00.621Z,27.70
2022-07-26T12:25:29.624Z,27.70
2022-07-26T12:27:58.011Z,27.60
2022-07-26T12:30:30.888Z,27.80
2022-07-26T12:33:02.910Z,28.00
2022-07-26T12:35:33.648Z,28.20
2022-07-26T12:38:02.148Z,28.60
2022-07-26T12:40:31.601Z,28.70
2022-07-26T12:43:02.591Z,28.80
2022-07-26T12:45:32.971Z,28.50
2022-07-26T12:48:02.803Z,28.20
2022-07-26T12:50:33.004Z,28.20
2022-07-26T12:53:03.116Z,28.30
2022-07-26T12:55:31.723Z,27.90
2022-07-26T12:58:00.694Z,27.60
2022-07-26T13:00:29.896Z,27.60
2022-07-26T13:02:58.603Z,27.60
2022-07-26T13:05:26.653Z,27.60
2022-07-26T13:07:56.012Z,27.60
2022-07-26T13:10:39.798Z,27.80
2022-07-26T13:13:07.824Z,27.90
2022-07-26T13:15:36.759Z,28.10
2022-07-26T13:18:07.864Z,28.00
2022-07-26T13:20:37.933Z,27.90
2022-07-26T13:23:11.590Z,27.80
2022-07-26T13:25:42.079Z,28.10
2022-07-26T13:28:11.124Z,28.40
2022-07-26T13:30:43.019Z,28.60
2022-07-26T13:33:11.990Z,28.70
2022-07-26T13:35:42.370Z,28.60
2022-07-26T13:38:11.897Z,28.40
2022-07-26T13:40:39.891Z,28.10
2022-07-26T13:43:07.902Z,28.00
2022-07-26T13:45:35.918Z,28.00
2022-07-26T13:48:04.107Z,28.10
2022-07-26T13:50:32.181Z,28.10
2022-07-26T13:53:00.719Z,28.00
2022-07-26T13:55:30.129Z,27.70
2022-07-26T13:57:58.541Z,27.80
2022-07-26T14:00:27.183Z,28.00
2022-07-26T14:02:56.302Z,28.20
2022-07-26T14:05:24.537Z,28.60
2022-07-26T14:07:52.770Z,28.70
2022-07-26T14:10:22.012Z,28.90
2022-07-26T14:12:52.004Z,29.20
2022-07-26T14:15:23.026Z,29.00
2022-07-26T14:17:52.094Z,28.80
2022-07-26T14:20:20.737Z,28.90
2022-07-26T14:22:49.370Z,29.00
2022-07-26T14:25:17.321Z,29.20
2022-07-26T14:27:45.405Z,29.30
2022-07-26T14:30:15.564Z,29.30
2022-07-26T14:32:43.616Z,29.40
2022-07-26T14:35:11.880Z,29.30
2022-07-26T14:37:42.635Z,29.20
2022-07-26T14:40:14.501Z,28.80
2022-07-26T14:42:42.584Z,28.40
2022-07-26T14:45:11.331Z,28.00
2022-07-26T14:47:41.021Z,27.80
2022-07-26T14:50:10.706Z,27.50
2022-07-26T14:52:39.881Z,27.40
2022-07-26T14:55:09.101Z,27.40
2022-07-26T14:57:39.339Z,27.70
2022-07-26T15:00:10.130Z,27.80
2022-07-26T15:02:41.580Z,27.60
2022-07-26T15:05:10.775Z,27.60
2022-07-26T15:07:39.332Z,27.80
2022-07-26T15:10:09.275Z,28.10
2022-07-26T15:12:37.328Z,28.10
2022-07-26T15:15:06.213Z,28.20
2022-07-26T15:17:34.387Z,28.20
2022-07-26T15:20:05.039Z,28.50
2022-07-26T15:22:33.096Z,28.80
2022-07-26T15:25:01.053Z,28.90
2022-07-26T15:27:29.118Z,28.70
2022-07-26T15:30:02.829Z,28.40
2022-07-26T15:32:32.149Z,28.10
2022-07-26T15:35:00.199Z,28.00
2022-07-26T15:37:30.006Z,28.00
2022-07-26T15:39:58.743Z,27.80
2022-07-26T15:42:26.893Z,27.60
2022-07-26T15:44:56.146Z,27.40
2022-07-26T15:47:52.176Z,27.30
2022-07-26T15:50:15.038Z,27.20
2022-07-26T15:52:45.815Z,27.10
2022-07-26T15:55:14.819Z,27.20
2022-07-26T15:57:43.164Z,27.40
2022-07-26T16:00:13.828Z,27.50
2022-07-26T16:02:42.629Z,27.60
2022-07-26T16:05:11.514Z,27.60
2022-07-26T16:07:41.485Z,27.50
2022-07-26T16:10:12.664Z,27.40
2022-07-26T16:12:41.316Z,27.40
2022-07-26T16:15:11.201Z,27.30
2022-07-26T16:17:39.611Z,27.30
2022-07-26T16:20:09.288Z,27.10
2022-07-26T16:22:41.221Z,27.10
2022-07-26T16:25:13.777Z,27.20
2022-07-26T16:27:43.822Z,27.10
2022-07-26T16:30:13.224Z,27.10
2022-07-26T16:32:41.353Z,27.10
2022-07-26T16:35:10.494Z,27.20
2022-07-26T16:37:38.584Z,27.20
2022-07-26T16:40:08.344Z,27.40
2022-07-26T16:42:37.718Z,27.40
2022-07-26T16:45:06.498Z,27.40
2022-07-26T16:47:34.470Z,27.40
2022-07-26T16:50:03.075Z,27.20
2022-07-26T16:52:31.072Z,27.20
2022-07-26T16:55:00.122Z,27.20
2022-07-26T16:57:28.220Z,27.10
2022-07-26T16:59:57.700Z,26.90
2022-07-26T17:02:25.746Z,26.80
2022-07-26T17:04:55.833Z,26.70
2022-07-26T17:07:25.860Z,26.80
2022-07-26T17:09:54.531Z,26.90
2022-07-26T17:12:22.864Z,27.00
2022-07-26T17:14:50.865Z,27.00
2022-07-26T17:17:20.297Z,26.90
2022-07-26T17:19:48.376Z,26.80
2022-07-26T17:22:17.237Z,26.80
2022-07-26T17:24:45.484Z,26.90
2022-07-26T17:27:13.793Z,27.00
2022-07-26T17:29:41.871Z,26.90
2022-07-26T17:32:10.711Z,27.00
2022-07-26T17:34:40.613Z,27.10
2022-07-26T17:37:09.992Z,27.10
2022-07-26T17:39:52.737Z,26.90
2022-07-26T17:42:22.262Z,26.80
2022-07-26T17:44:50.932Z,26.80
2022-07-26T17:47:29.667Z,26.60
2022-07-26T17:50:26.366Z,26.60
2022-07-26T17:52:49.061Z,26.40
2022-07-26T17:55:18.532Z,26.30
2022-07-26T17:57:47.797Z,26.30
2022-07-26T18:00:16.784Z,26.30
2022-07-26T18:02:44.826Z,26.10
2022-07-26T18:05:14.713Z,26.00
2022-07-26T18:07:42.841Z,25.90
2022-07-26T18:10:12.099Z,25.80
2022-07-26T18:12:40.189Z,25.70
2022-07-26T18:15:09.206Z,25.60
2022-07-26T18:17:37.432Z,25.60
2022-07-26T18:20:06.910Z,25.60
2022-07-26T18:22:36.389Z,25.50
2022-07-26T18:25:05.058Z,25.50
2022-07-26T18:27:33.401Z,25.40
2022-07-26T18:30:01.471Z,25.50
2022-07-26T18:32:29.573Z,25.50
2022-07-26T18:34:57.578Z,25.40
2022-07-26T18:37:25.778Z,25.40
2022-07-26T18:39:58.021Z,25.30
2022-07-26T18:42:26.905Z,25.20
2022-07-26T18:44:54.915Z,25.20
2022-07-26T18:47:23.383Z,25.10
2022-07-26T18:49:51.622Z,25.10
2022-07-26T18:52:31.510Z,25.10
2022-07-26T18:55:02.526Z,25.00
2022-07-26T18:57:30.570Z,25.00
2022-07-26T18:59:58.638Z,25.00
2022-07-26T19:02:27.039Z,25.00
2022-07-26T19:04:55.432Z,25.10
2022-07-26T19:07:23.459Z,24.90
2022-07-26T19:09:56.415Z,24.90
2022-07-26T19:12:28.256Z,24.90
2022-07-26T19:14:56.315Z,24.80
2022-07-26T19:17:24.677Z,24.80
2022-07-26T19:19:52.674Z,24.80
2022-07-26T19:22:22.312Z,24.70
2022-07-26T19:24:50.715Z,24.70
2022-07-26T19:27:19.164Z,24.60
2022-07-26T19:29:49.386Z,24.60
2022-07-26T19:32:17.706Z,24.50
2022-07-26T19:34:45.641Z,24.50
2022-07-26T19:37:19.718Z,24.50
2022-07-26T19:39:48.466Z,24.50
2022-07-26T19:42:16.467Z,24.50
2022-07-26T19:44:45.668Z,24.50
2022-07-26T19:47:15.620Z,24.50
2022-07-26T19:49:43.738Z,24.50
2022-07-26T19:52:12.135Z,24.60
2022-07-26T19:54:40.653Z,24.50
2022-07-26T19:57:08.720Z,24.30
2022-07-26T19:59:36.913Z,24.50
2022-07-26T20:02:05.759Z,24.40
2022-07-26T20:04:35.315Z,24.30
2022-07-26T20:07:03.441Z,24.30
2022-07-26T20:09:31.737Z,24.30
2022-07-26T20:12:00.777Z,24.10
2022-07-26T20:14:28.851Z,24.10
2022-07-26T20:16:58.272Z,23.90
2022-07-26T20:19:28.182Z,23.80
2022-07-26T20:21:58.744Z,23.70
2022-07-26T20:24:26.811Z,23.70
2022-07-26T20:26:54.936Z,23.10
2022-07-26T20:29:23.080Z,23.00
2022-07-26T20:31:51.473Z,22.80
2022-07-26T20:34:19.617Z,22.50
2022-07-26T20:36:47.779Z,22.40
2022-07-26T20:39:17.355Z,22.30
2022-07-26T20:41:45.345Z,22.20
2022-07-26T20:44:14.262Z,22.20
2022-07-26T20:46:42.478Z,22.20
2022-07-26T20:49:11.011Z,22.20
2022-07-26T20:51:39.557Z,22.10
2022-07-26T20:54:08.645Z,22.10
2022-07-26T20:56:38.661Z,22.10
2022-07-26T20:59:07.119Z,22.20
2022-07-26T21:01:35.602Z,22.10
2022-07-26T21:04:03.994Z,21.90
2022-07-26T21:06:33.197Z,21.80
2022-07-26T21:09:09.595Z,21.80
2022-07-26T21:11:40.030Z,21.90
2022-07-26T21:14:08.310Z,21.90
2022-07-26T21:16:36.562Z,21.80
2022-07-26T21:19:05.382Z,21.80
2022-07-26T21:21:40.761Z,22.00
2022-07-26T21:24:09.420Z,21.70
2022-07-26T21:26:37.413Z,21.70
2022-07-26T21:29:06.940Z,21.70
2022-07-26T21:31:35.077Z,21.50
2022-07-26T21:34:03.230Z,21.50
2022-07-26T21:36:31.518Z,21.50
2022-07-26T21:38:59.585Z,21.50
2022-07-26T21:41:27.615Z,21.50
2022-07-26T21:43:55.622Z,21.50
2022-07-26T21:46:25.315Z,21.40
2022-07-26T21:48:53.540Z,21.40
2022-07-26T21:51:21.974Z,21.40
2022-07-26T21:53:50.203Z,21.40
2022-07-26T21:56:18.182Z,21.40
2022-07-26T21:58:47.112Z,21.30
2022-07-26T22:01:15.707Z,21.30
2022-07-26T22:03:45.253Z,21.30
2022-07-26T22:06:13.350Z,21.20
2022-07-26T22:08:41.503Z,21.30
2022-07-26T22:11:09.953Z,21.20
2022-07-26T22:13:38.247Z,21.40
2022-07-26T22:16:07.477Z,21.30
2022-07-26T22:18:35.549Z,21.30
2022-07-26T22:21:05.297Z,21.20
2022-07-26T22:23:33.747Z,21.30
2022-07-26T22:26:04.061Z,21.20
2022-07-26T22:28:33.492Z,21.30
2022-07-26T22:31:02.373Z,21.20
2022-07-26T22:33:30.349Z,21.20
2022-07-26T22:35:58.409Z,21.00
2022-07-26T22:38:27.754Z,20.90
2022-07-26T22:40:55.749Z,20.80
2022-07-26T22:43:23.700Z,20.80
2022-07-26T22:45:51.825Z,20.80
2022-07-26T22:48:19.862Z,20.70
2022-07-26T22:50:47.844Z,20.70
2022-07-26T22:53:16.380Z,20.60
2022-07-26T22:55:45.800Z,20.50
2022-07-26T22:58:13.915Z,20.50
2022-07-26T23:00:42.066Z,20.50
2022-07-26T23:03:19.314Z,20.40
2022-07-26T23:05:49.249Z,20.40
2022-07-26T23:08:45.317Z,20.30
2022-07-26T23:11:07.741Z,20.20
2022-07-26T23:13:35.772Z,20.30
2022-07-26T23:16:04.025Z,20.30
2022-07-26T23:18:32.795Z,20.30
2022-07-26T23:21:00.863Z,20.30
2022-07-26T23:23:29.966Z,20.30
2022-07-26T23:25:59.572Z,20.20
2022-07-26T23:28:37.491Z,20.10
2022-07-26T23:31:07.901Z,20.00
2022-07-26T23:33:51.612Z,20.00
2022-07-26T23:36:22.988Z,19.90
2022-07-26T23:38:51.036Z,19.80
2022-07-26T23:41:19.319Z,19.80
2022-07-26T23:43:49.009Z,19.70
2022-07-26T23:46:17.325Z,19.70
2022-07-26T23:48:45.578Z,19.80
2022-07-26T23:51:13.885Z,19.90
2022-07-26T23:53:42.121Z,19.90
2022-07-26T23:56:10.089Z,19.90
2022-07-26T23:58:38.576Z,19.90
